Time;durP1;ratioP1;P1;durP2;ratioP2;P2;SDS_P1;SDS_P2;PMS_P1;PMS_P2;Temp;Humidity;BMP_temperature;BMP_pressure;BME280_temperature;BME280_humidity;BME280_pressure;Samples;Min_cycle;Max_cycle;Signal;HPM_P1;HPM_P2
2022/06/08 00:01:06;;;;;;;13.03;11.78;;;;;;;19.75;68.79;99798.13;1747088;80;25742;-67
2022/06/08 00:03:47;;;;;;;12.23;11.12;;;;;;;19.72;69.07;99803.79;1763544;80;25678;-68
2022/06/08 00:06:15;;;;;;;13.03;11.73;;;;;;;19.68;69.30;99813.97;1745394;82;28628;-67
2022/06/08 00:08:41;;;;;;;12.95;11.55;;;;;;;19.58;69.35;99820.14;1766896;81;26004;-68
2022/06/08 00:11:08;;;;;;;12.82;11.57;;;;;;;19.49;70.00;99828.70;1737510;82;25525;-68
2022/06/08 00:13:34;;;;;;;12.37;11.18;;;;;;;19.37;70.25;99831.75;1742833;82;25592;-67
2022/06/08 00:16:01;;;;;;;12.10;10.82;;;;;;;19.25;70.59;99838.31;1763017;81;25544;-68
2022/06/08 00:18:27;;;;;;;12.60;11.30;;;;;;;19.14;70.96;99849.19;1768158;81;27368;-67
2022/06/08 00:20:54;;;;;;;12.40;11.05;;;;;;;19.04;71.48;99852.03;1743537;81;25877;-67
2022/06/08 00:23:21;;;;;;;12.73;11.43;;;;;;;18.97;72.01;99861.55;1776023;80;25621;-67
2022/06/08 00:25:48;;;;;;;13.50;10.70;;;;;;;18.86;72.72;99856.54;1776798;80;25911;-67
2022/06/08 00:28:16;;;;;;;15.98;10.45;;;;;;;18.81;72.93;99859.59;1748876;81;25711;-67
2022/06/08 00:30:43;;;;;;;11.78;10.58;;;;;;;18.76;73.23;99857.19;1755526;81;28087;-66
2022/06/08 00:33:10;;;;;;;12.95;10.13;;;;;;;18.72;73.88;99843.45;1763883;80;25829;-66
2022/06/08 00:35:37;;;;;;;11.40;10.30;;;;;;;18.70;74.03;99843.05;1782932;80;25654;-66
2022/06/08 00:38:04;;;;;;;12.23;10.55;;;;;;;18.72;74.33;99846.19;1729620;83;25589;-67
2022/06/08 00:40:54;;;;;;;13.45;10.63;;;;;;;18.74;74.37;99845.82;1786898;80;25735;-68
2022/06/08 00:43:20;;;;;;;11.85;10.65;;;;;;;18.73;74.53;99845.60;1771563;80;27597;-67
2022/06/08 00:45:48;;;;;;;11.85;10.60;;;;;;;18.73;74.67;99851.89;1792965;80;26098;-67
2022/06/08 00:48:17;;;;;;;13.65;11.03;;;;;;;18.73;74.50;99853.82;1759060;81;25814;-66
2022/06/08 00:50:48;;;;;;;11.10;9.97;;;;;;;18.71;75.11;99850.67;1758971;81;25541;-66
2022/06/08 00:53:19;;;;;;;11.25;9.93;;;;;;;18.70;75.17;99846.38;1771119;80;25737;-67
2022/06/08 00:55:47;;;;;;;11.55;10.32;;;;;;;18.70;75.74;99841.67;1764337;80;27532;-66
2022/06/08 00:58:18;;;;;;;11.83;10.63;;;;;;;18.71;75.79;99838.34;1775515;80;25457;-66
2022/06/08 01:00:46;;;;;;;10.98;9.88;;;;;;;18.74;75.88;99842.49;1746418;81;25806;-67
2022/06/08 01:03:15;;;;;;;11.57;10.38;;;;;;;18.75;76.02;99844.67;1760387;81;25605;-66
2022/06/08 01:05:49;;;;;;;11.00;9.88;;;;;;;18.76;76.06;99851.70;1745881;81;25446;-67
2022/06/08 01:08:41;;;;;;;12.60;11.30;;;;;;;18.75;76.17;99848.78;1767004;80;28649;-67
2022/06/08 01:11:36;;;;;;;13.95;11.33;;;;;;;18.71;76.38;99854.78;1768053;80;25672;-67
2022/06/08 01:14:07;;;;;;;14.38;11.73;;;;;;;18.65;76.20;99861.96;1759430;81;25688;-67
2022/06/08 01:16:33;;;;;;;12.00;10.60;;;;;;;18.60;76.55;99864.26;1777048;80;25742;-66
2022/06/08 01:19:02;;;;;;;13.25;10.98;;;;;;;18.58;76.80;99857.00;1754601;80;25605;-67
2022/06/08 01:21:34;;;;;;;14.07;9.65;;;;;;;18.56;77.00;99860.11;1779722;80;27538;-67
2022/06/08 01:24:05;;;;;;;11.88;9.75;;;;;;;18.55;77.15;99860.48;1768548;81;25861;-67
2022/06/08 01:26:58;;;;;;;12.15;8.80;;;;;;;18.55;77.40;99857.74;1745198;81;25390;-67
2022/06/08 01:29:33;;;;;;;11.48;9.38;;;;;;;18.56;77.30;99846.98;1749838;81;25738;-67
2022/06/08 01:32:33;;;;;;;15.10;10.05;;;;;;;18.62;77.69;99846.27;1769227;80;25446;-67
2022/06/08 01:35:37;;;;;;;12.93;9.73;;;;;;;18.65;77.49;99844.75;1746210;81;27532;-67
2022/06/08 01:38:21;;;;;;;11.43;9.95;;;;;;;18.68;77.48;99833.05;1769494;80;25655;-67
2022/06/08 01:41:11;;;;;;;10.88;9.25;;;;;;;18.72;77.58;99828.39;1722408;81;25400;-66
2022/06/08 01:44:08;;;;;;;10.60;9.48;;;;;;;18.74;77.72;99819.80;1741863;81;25656;-67
2022/06/08 01:46:46;;;;;;;11.83;10.63;;;;;;;18.81;78.00;99803.42;1754325;81;25695;-67
2022/06/08 01:49:32;;;;;;;13.55;11.45;;;;;;;18.90;78.10;99799.03;1727140;80;27455;-67
2022/06/08 01:52:13;;;;;;;12.73;11.33;;;;;;;18.96;78.09;99792.83;1732283;81;25549;-67
2022/06/08 01:54:59;;;;;;;13.95;11.20;;;;;;;19.04;78.15;99794.47;1748835;81;25407;-67
2022/06/08 01:57:32;;;;;;;12.75;11.45;;;;;;;19.06;77.86;99789.21;1730412;81;26096;-67
2022/06/08 02:00:07;;;;;;;12.30;11.03;;;;;;;19.07;77.81;99779.80;1751916;81;25759;-67
2022/06/08 02:02:51;;;;;;;17.15;11.57;;;;;;;19.04;77.72;99769.03;1748664;82;27431;-67
2022/06/08 02:05:41;;;;;;;13.00;10.65;;;;;;;19.05;77.65;99770.58;1734754;81;25652;-67
2022/06/08 02:08:21;;;;;;;12.98;11.57;;;;;;;19.04;77.53;99770.40;1756141;80;25663;-67
2022/06/08 02:10:56;;;;;;;13.00;11.65;;;;;;;19.02;77.73;99772.14;1757326;81;25786;-67
2022/06/08 02:13:28;;;;;;;14.13;11.60;;;;;;;19.00;77.61;99758.05;1752393;81;25387;-67
2022/06/08 02:16:05;;;;;;;12.85;11.55;;;;;;;18.99;77.86;99758.42;1764339;81;27115;-67
2022/06/08 02:18:58;;;;;;;13.90;12.50;;;;;;;18.98;78.11;99756.83;1747991;81;26130;-67
2022/06/08 02:21:35;;;;;;;17.05;13.10;;;;;;;18.92;78.18;99750.92;1750541;81;25621;-67
2022/06/08 02:24:18;;;;;;;14.25;12.07;;;;;;;18.90;78.24;99751.08;1768223;80;26360;-66
2022/06/08 02:26:56;;;;;;;14.53;12.33;;;;;;;18.87;78.22;99749.90;1748851;80;25769;-66
2022/06/08 02:29:30;;;;;;;15.13;13.43;;;;;;;18.81;78.03;99756.29;1765325;80;26997;-67
2022/06/08 02:34:27;;;;;;;16.02;12.80;;;;;;;18.76;78.00;99755.83;1751700;81;25738;-67
2022/06/08 02:34:38;;;;;;;16.30;13.70;;;;;;;18.73;78.17;99760.13;1759854;81;25716;-67
2022/06/08 02:37:24;;;;;;;14.93;12.90;;;;;;;18.67;78.27;99750.06;1749987;81;25701;-67
2022/06/08 02:40:02;;;;;;;15.83;14.10;;;;;;;18.62;78.38;99747.67;1772451;80;25656;-67
2022/06/08 02:42:32;;;;;;;14.40;12.37;;;;;;;18.58;78.58;99743.34;1721655;81;27568;-67
2022/06/08 02:45:04;;;;;;;16.10;12.88;;;;;;;18.56;78.65;99745.65;1744299;80;27387;-67
2022/06/08 02:47:34;;;;;;;16.32;14.20;;;;;;;18.53;78.84;99747.20;1738781;81;25727;-67
2022/06/08 02:50:08;;;;;;;18.20;13.83;;;;;;;18.52;78.94;99748.36;1745295;82;25539;-67
2022/06/08 02:52:39;;;;;;;17.40;13.83;;;;;;;18.51;79.19;99746.80;1764582;80;25756;-67
2022/06/08 02:55:15;;;;;;;16.37;14.43;;;;;;;18.51;79.40;99740.52;1777764;80;27676;-67
2022/06/08 02:57:55;;;;;;;19.92;14.35;;;;;;;18.47;79.48;99739.92;1757583;80;25800;-67
2022/06/08 03:00:30;;;;;;;16.05;14.28;;;;;;;18.46;79.47;99742.44;1725854;81;25622;-67
2022/06/08 03:03:19;;;;;;;18.02;14.38;;;;;;;18.45;79.52;99736.75;1784848;80;26633;-67
2022/06/08 03:05:51;;;;;;;18.05;15.23;;;;;;;18.43;79.61;99735.56;1746760;81;25699;-67
2022/06/08 03:08:25;;;;;;;17.40;15.60;;;;;;;18.39;79.72;99731.98;1751895;81;27559;-67
2022/06/08 03:10:54;;;;;;;19.07;14.85;;;;;;;18.36;79.74;99741.75;1766060;81;25800;-67
2022/06/08 03:13:29;;;;;;;17.15;15.25;;;;;;;18.32;79.69;99745.05;1751732;80;25501;-67
2022/06/08 03:16:00;;;;;;;17.37;15.03;;;;;;;18.31;79.94;99747.56;1756171;80;25471;-67
2022/06/08 03:18:27;;;;;;;16.02;14.45;;;;;;;18.28;79.77;99753.78;1775403;80;25471;-67
2022/06/08 03:20:55;;;;;;;16.60;15.00;;;;;;;18.27;80.09;99753.59;1743537;81;25970;-67
2022/06/08 03:23:22;;;;;;;18.37;16.02;;;;;;;18.24;80.17;99755.11;1751715;81;25666;-67
2022/06/08 03:25:49;;;;;;;17.25;15.35;;;;;;;18.22;80.44;99751.97;1748910;81;25842;-67
2022/06/08 03:28:16;;;;;;;17.87;15.55;;;;;;;18.22;80.52;99766.24;1762450;81;25671;-67
2022/06/08 03:30:44;;;;;;;17.62;15.40;;;;;;;18.20;80.53;99768.54;1769893;81;25552;-67
2022/06/08 03:33:11;;;;;;;17.70;15.83;;;;;;;18.16;80.56;99767.13;1748136;81;27443;-67
2022/06/08 03:35:39;;;;;;;17.65;15.83;;;;;;;18.17;80.67;99776.93;1769619;81;25694;-67
2022/06/08 03:38:07;;;;;;;18.62;15.35;;;;;;;18.16;80.78;99778.67;1758381;79;25735;-67
2022/06/08 03:40:34;;;;;;;18.48;15.83;;;;;;;18.15;81.00;99772.41;1743848;81;25642;-67
2022/06/08 03:43:00;;;;;;;18.80;15.80;;;;;;;18.16;81.12;99771.83;1746712;81;25675;-67
2022/06/08 03:45:31;;;;;;;18.27;16.32;;;;;;;18.16;81.38;99771.23;1771538;81;29705;-67
2022/06/08 03:47:57;;;;;;;20.17;17.10;;;;;;;18.15;81.35;99774.34;1760920;81;25559;-67
2022/06/08 03:50:28;;;;;;;18.37;16.42;;;;;;;18.16;81.50;99780.04;1767084;81;25729;-67
2022/06/08 03:53:00;;;;;;;19.25;16.25;;;;;;;18.18;81.60;99783.19;1756374;81;25491;-67
2022/06/08 03:55:30;;;;;;;18.70;16.40;;;;;;;18.16;81.41;99783.55;1760853;81;26379;-67
2022/06/08 03:57:57;;;;;;;18.27;16.17;;;;;;;18.16;81.58;99782.19;1761923;81;27620;-67
2022/06/08 04:00:26;;;;;;;19.80;17.57;;;;;;;18.17;81.54;99777.52;1757297;81;25649;-67
2022/06/08 04:02:53;;;;;;;18.80;16.80;;;;;;;18.18;81.76;99779.86;1770801;81;25617;-67
2022/06/08 04:05:20;;;;;;;18.50;16.52;;;;;;;18.21;81.78;99779.12;1771261;81;25770;-67
2022/06/08 04:07:46;;;;;;;20.37;17.67;;;;;;;18.26;82.04;99773.31;1762473;81;25417;-67
2022/06/08 04:10:14;;;;;;;23.73;18.57;;;;;;;18.28;81.81;99776.45;1765741;81;27627;-67
2022/06/08 04:12:40;;;;;;;19.95;17.95;;;;;;;18.33;82.06;99780.05;1756631;81;25602;-67
2022/06/08 04:15:08;;;;;;;20.68;18.48;;;;;;;18.37;82.10;99780.86;1754252;81;26382;-68
2022/06/08 04:17:34;;;;;;;19.77;17.67;;;;;;;18.41;82.12;99779.74;1751619;81;25750;-67
2022/06/08 04:20:01;;;;;;;19.82;17.48;;;;;;;18.46;82.33;99787.63;1742091;81;25700;-67
2022/06/08 04:22:31;;;;;;;20.70;18.15;;;;;;;18.47;82.12;99793.31;1758877;81;27647;-67
2022/06/08 04:25:01;;;;;;;20.52;16.80;;;;;;;18.51;81.97;99792.55;1714020;81;25821;-66
2022/06/08 04:27:28;;;;;;;19.25;16.42;;;;;;;18.54;82.14;99799.45;1728968;83;25651;-65
2022/06/08 04:29:55;;;;;;;21.02;16.62;;;;;;;18.61;82.27;99802.27;1743472;82;26015;-65
2022/06/08 04:32:22;;;;;;;19.12;16.02;;;;;;;18.66;82.24;99806.03;1744028;82;25707;-67
2022/06/08 04:34:48;;;;;;;17.25;15.13;;;;;;;18.71;82.17;99806.84;1731029;82;27466;-67
2022/06/08 04:37:16;;;;;;;19.10;15.78;;;;;;;18.76;82.35;99808.69;1730405;82;25689;-64
2022/06/08 04:39:43;;;;;;;20.17;16.02;;;;;;;18.82;82.07;99809.13;1743268;82;25657;-65
2022/06/08 04:42:09;;;;;;;19.70;16.67;;;;;;;18.91;82.25;99810.21;1744016;82;25661;-65
2022/06/08 04:44:36;;;;;;;24.30;19.62;;;;;;;19.01;82.23;99815.78;1731136;82;25770;-66
2022/06/08 04:47:04;;;;;;;18.60;16.10;;;;;;;19.11;82.16;99812.16;1742447;82;28154;-66
2022/06/08 04:49:30;;;;;;;18.62;15.38;;;;;;;19.19;82.03;99807.72;1744551;82;25696;-66
2022/06/08 04:51:56;;;;;;;17.67;15.25;;;;;;;19.26;81.70;99808.37;1730837;82;25647;-66
2022/06/08 04:54:22;;;;;;;17.55;14.38;;;;;;;19.34;81.57;99808.63;1750708;81;26272;-66
2022/06/08 04:56:48;;;;;;;17.50;15.68;;;;;;;19.44;81.48;99812.60;1730897;82;25374;-66
2022/06/08 04:59:15;;;;;;;15.13;13.45;;;;;;;19.51;81.27;99815.98;1742695;82;27529;-66
2022/06/08 05:01:41;;;;;;;14.63;13.22;;;;;;;19.58;81.07;99816.02;1744466;82;27458;-66
2022/06/08 05:04:08;;;;;;;16.00;12.93;;;;;;;19.65;80.60;99822.14;1730989;82;25385;-66
2022/06/08 05:06:34;;;;;;;14.95;13.20;;;;;;;19.67;80.27;99824.72;1728406;81;25801;-65
2022/06/08 05:09:00;;;;;;;14.00;12.55;;;;;;;19.72;80.10;99827.70;1747855;81;26021;-67
2022/06/08 05:11:27;;;;;;;14.98;13.32;;;;;;;19.75;79.58;99831.06;1732950;82;27539;-67
2022/06/08 05:14:09;;;;;;;14.73;13.22;;;;;;;19.78;79.54;99827.55;1741790;82;25873;-67
2022/06/08 05:16:43;;;;;;;17.17;13.15;;;;;;;19.84;79.47;99832.12;1688518;84;25806;-66
2022/06/08 05:19:13;;;;;;;13.85;11.50;;;;;;;19.88;79.12;99830.95;1654382;86;25761;-67
2022/06/08 05:21:40;;;;;;;12.90;11.45;;;;;;;19.91;78.68;99832.16;1672593;85;25826;-67
2022/06/08 05:24:08;;;;;;;13.55;11.75;;;;;;;19.92;78.48;99830.97;1687571;85;28202;-67
2022/06/08 05:26:34;;;;;;;17.02;12.50;;;;;;;19.95;78.40;99826.89;1679972;85;25537;-66
2022/06/08 05:29:00;;;;;;;14.50;12.53;;;;;;;20.00;78.50;99824.34;1677459;85;26006;-67
2022/06/08 05:31:26;;;;;;;14.18;11.35;;;;;;;20.06;78.54;99826.94;1668628;83;25818;-67
2022/06/08 05:33:56;;;;;;;14.23;11.95;;;;;;;20.11;78.19;99827.95;1668619;85;25580;-67
2022/06/08 05:36:20;;;;;;;13.62;11.78;;;;;;;20.16;78.25;99825.42;1686601;84;27561;-67
2022/06/08 05:38:46;;;;;;;12.90;11.53;;;;;;;20.22;78.08;99817.00;1681410;84;25928;-68
2022/06/08 05:41:12;;;;;;;19.95;11.48;;;;;;;20.29;77.96;99825.86;1699598;83;25821;-68
2022/06/08 05:43:38;;;;;;;14.38;12.03;;;;;;;20.33;77.71;99820.59;1708680;83;25746;-68
2022/06/08 05:46:04;;;;;;;14.45;10.75;;;;;;;20.40;77.75;99823.95;1707452;83;25721;-67
2022/06/08 05:48:30;;;;;;;11.88;10.53;;;;;;;20.49;77.70;99822.20;1714664;83;27483;-69
2022/06/08 05:50:56;;;;;;;12.58;10.50;;;;;;;20.62;77.80;99819.88;1695251;82;26480;-69
2022/06/08 05:53:22;;;;;;;12.10;9.48;;;;;;;20.76;77.77;99826.05;1687918;83;26405;-69
2022/06/08 05:55:48;;;;;;;12.25;10.38;;;;;;;20.92;77.42;99825.07;1708049;83;26342;-66
2022/06/08 05:58:14;;;;;;;9.43;8.38;;;;;;;21.05;76.94;99833.14;1705144;83;25729;-66
2022/06/08 06:00:42;;;;;;;12.68;8.55;;;;;;;21.15;76.37;99831.59;1694926;83;27398;-66
2022/06/08 06:03:10;;;;;;;9.45;8.38;;;;;;;21.29;76.07;99836.30;1705668;83;25833;-67
2022/06/08 06:05:39;;;;;;;9.95;7.25;;;;;;;21.41;75.33;99826.87;1707218;83;25715;-65
2022/06/08 06:08:07;;;;;;;8.25;6.90;;;;;;;21.54;74.99;99824.52;1700701;84;25687;-67
2022/06/08 06:10:35;;;;;;;7.78;6.90;;;;;;;21.71;74.88;99833.36;1709250;83;25700;-67
2022/06/08 06:13:02;;;;;;;8.45;6.60;;;;;;;21.90;74.58;99833.51;1699452;83;27522;-66
2022/06/08 06:15:29;;;;;;;7.25;6.55;;;;;;;22.13;73.78;99837.16;1697514;83;25751;-67
2022/06/08 06:17:55;;;;;;;6.03;5.28;;;;;;;22.23;72.68;99829.27;1696439;84;25768;-66
2022/06/08 06:20:21;;;;;;;7.22;6.53;;;;;;;22.31;71.70;99836.36;1771465;80;26576;-67
2022/06/08 06:22:48;;;;;;;8.68;6.58;;;;;;;22.42;71.44;99834.92;1758634;80;26303;-67
2022/06/08 06:25:14;;;;;;;8.43;5.55;;;;;;;22.56;71.19;99837.02;1788493;80;28116;-67
2022/06/08 06:27:40;;;;;;;6.45;5.85;;;;;;;22.70;70.17;99832.63;1801079;79;25732;-66
2022/06/08 06:30:09;;;;;;;6.67;5.62;;;;;;;22.74;69.30;99832.00;1811601;78;25687;-67
2022/06/08 06:32:37;;;;;;;5.80;5.20;;;;;;;22.78;68.99;99824.48;1819659;78;25489;-67
2022/06/08 06:35:08;;;;;;;5.62;5.05;;;;;;;22.85;68.82;99832.73;1752288;81;25743;-67
2022/06/08 06:37:35;;;;;;;6.17;5.58;;;;;;;22.93;68.75;99834.25;1740334;80;28233;-68
2022/06/08 06:40:02;;;;;;;7.10;6.05;;;;;;;23.01;68.45;99830.84;1752083;80;27309;-67
2022/06/08 06:42:33;;;;;;;6.80;5.95;;;;;;;23.09;68.02;99828.25;1757357;81;25829;-67
2022/06/08 06:45:01;;;;;;;6.50;5.90;;;;;;;23.16;67.35;99828.80;1746014;81;26183;-67
2022/06/08 06:47:27;;;;;;;8.15;5.35;;;;;;;23.22;67.16;99818.09;1766331;80;25309;-67
2022/06/08 06:49:54;;;;;;;7.00;5.47;;;;;;;23.25;66.25;99816.69;1733264;81;27657;-67
2022/06/08 06:52:20;;;;;;;5.20;4.65;;;;;;;23.24;65.73;99813.76;1776778;80;25697;-67
2022/06/08 06:54:47;;;;;;;8.23;5.25;;;;;;;23.24;65.55;99811.57;1743378;81;25979;-67
2022/06/08 06:57:14;;;;;;;5.33;4.92;;;;;;;23.29;65.59;99808.38;1719838;83;25741;-66
2022/06/08 06:59:40;;;;;;;6.10;4.20;;;;;;;23.37;65.66;99811.88;1763527;80;25672;-68
2022/06/08 07:02:17;;;;;;;6.22;4.70;;;;;;;23.43;65.42;99814.39;1751743;81;27522;-67
2022/06/08 07:04:44;;;;;;;5.15;4.35;;;;;;;23.47;64.66;99813.14;1742984;81;25977;-67
2022/06/08 07:07:10;;;;;;;6.50;4.67;;;;;;;23.49;64.43;99816.88;1752827;81;25773;-67
2022/06/08 07:09:38;;;;;;;6.10;5.40;;;;;;;23.53;64.16;99826.50;1752889;81;25667;-68
2022/06/08 07:12:07;;;;;;;6.05;5.45;;;;;;;23.54;64.30;99818.42;1763291;81;25695;-67
2022/06/08 07:14:34;;;;;;;7.08;5.78;;;;;;;23.58;64.25;99821.34;1743401;80;28166;-67
2022/06/08 07:17:00;;;;;;;6.28;5.28;;;;;;;23.62;64.13;99819.31;1753754;81;25950;-67
2022/06/08 07:19:26;;;;;;;5.90;4.83;;;;;;;23.67;63.37;99821.63;1774722;80;25745;-68
2022/06/08 07:21:52;;;;;;;5.12;4.65;;;;;;;23.68;63.12;99817.69;1757302;80;26071;-66
2022/06/08 07:24:23;;;;;;;6.15;5.58;;;;;;;23.71;63.16;99819.44;1768908;80;25410;-66
2022/06/08 07:26:50;;;;;;;6.50;5.22;;;;;;;23.73;62.92;99815.66;1740047;80;27989;-64
2022/06/08 07:29:16;;;;;;;6.67;6.08;;;;;;;23.81;62.71;99815.20;1741004;82;25971;-64
2022/06/08 07:31:43;;;;;;;8.68;5.87;;;;;;;23.88;62.79;99820.47;1760027;81;25458;-65
2022/06/08 07:34:14;;;;;;;7.83;6.28;;;;;;;23.98;63.04;99818.19;1748660;80;25735;-65
2022/06/08 07:36:42;;;;;;;9.48;7.40;;;;;;;24.04;62.59;99816.52;1749801;81;25635;-66
2022/06/08 07:39:09;;;;;;;8.58;7.17;;;;;;;24.14;62.49;99811.47;1769734;81;27701;-66
2022/06/08 07:41:36;;;;;;;13.58;6.50;;;;;;;24.23;62.40;99819.28;1759544;81;25603;-65
2022/06/08 07:44:05;;;;;;;5.35;4.90;;;;;;;24.37;62.35;99819.69;1762942;81;25718;-65
2022/06/08 07:46:31;;;;;;;7.80;5.95;;;;;;;24.49;61.95;99819.73;1754131;80;26395;-65
2022/06/08 07:51:43;;;;;;;6.00;5.45;;;;;;;24.65;60.68;99813.00;1768969;81;27691;-65
2022/06/08 07:54:09;;;;;;;5.95;5.37;;;;;;;24.64;60.04;99816.98;1775782;80;25797;-65
2022/06/08 07:56:36;;;;;;;10.95;5.70;;;;;;;24.60;59.64;99820.38;1722326;81;25703;-65
2022/06/08 07:59:04;;;;;;;6.03;5.42;;;;;;;24.63;59.97;99824.31;1784736;80;26153;-65
2022/06/08 08:01:30;;;;;;;8.20;7.42;;;;;;;24.78;60.44;99822.91;1753088;81;25747;-65
2022/06/08 08:03:56;;;;;;;7.35;6.15;;;;;;;25.14;60.51;99813.44;1753355;81;27635;-64
2022/06/08 08:06:22;;;;;;;6.60;6.00;;;;;;;25.56;60.06;99822.86;1782998;80;25778;-65
2022/06/08 08:08:48;;;;;;;14.98;8.98;;;;;;;25.77;59.01;99824.45;1729980;81;25602;-65
2022/06/08 08:11:15;;;;;;;9.10;7.37;;;;;;;25.86;58.48;99826.08;1748965;81;25501;-66
2022/06/08 08:13:40;;;;;;;10.20;7.40;;;;;;;25.90;57.82;99830.93;1760824;81;25717;-66
2022/06/08 08:16:07;;;;;;;9.83;6.87;;;;;;;25.88;57.34;99825.04;1775998;80;28314;-66
2022/06/08 08:18:33;;;;;;;6.95;6.25;;;;;;;25.89;57.23;99829.97;1722311;81;25852;-66
2022/06/08 08:20:59;;;;;;;7.33;6.53;;;;;;;25.96;56.72;99829.85;1760321;80;25615;-66
2022/06/08 08:23:25;;;;;;;6.97;6.28;;;;;;;26.09;56.30;99826.63;1751442;81;25690;-66
2022/06/08 08:25:52;;;;;;;7.60;6.40;;;;;;;26.17;56.18;99832.82;1746112;81;25697;-65
2022/06/08 08:28:19;;;;;;;7.37;6.62;;;;;;;26.16;56.16;99827.09;1753680;81;27516;-66
2022/06/08 08:30:45;;;;;;;7.55;6.70;;;;;;;26.32;56.66;99831.90;1756528;81;25615;-66
2022/06/08 08:33:11;;;;;;;6.90;5.95;;;;;;;26.65;56.45;99831.42;1748915;81;25661;-66
2022/06/08 08:35:37;;;;;;;6.80;6.12;;;;;;;26.88;55.70;99834.48;1759802;81;25647;-66
2022/06/08 08:38:03;;;;;;;6.35;5.75;;;;;;;27.02;54.96;99836.91;1740502;81;26278;-65
2022/06/08 08:40:48;;;;;;;7.90;6.12;;;;;;;27.07;54.33;99832.84;1759279;81;27539;-65
2022/06/08 08:43:20;;;;;;;6.03;4.67;;;;;;;27.09;53.93;99838.73;1749100;81;25720;-66
2022/06/08 08:46:22;;;;;;;6.03;4.12;;;;;;;27.35;54.00;99830.02;1770537;80;25733;-66
2022/06/08 08:49:10;;;;;;;4.55;4.20;;;;;;;27.88;53.98;99827.04;1736467;81;25691;-65
2022/06/08 08:51:44;;;;;;;6.92;4.45;;;;;;;28.58;52.96;99829.62;1778005;80;33019;-64
2022/06/08 08:54:22;;;;;;;5.05;4.50;;;;;;;29.10;51.83;99828.20;1756750;80;27549;-65
2022/06/08 08:56:53;;;;;;;5.72;5.20;;;;;;;29.19;49.77;99824.17;1768437;81;25622;-69
2022/06/08 08:59:24;;;;;;;5.87;4.92;;;;;;;29.30;49.97;99825.97;1758710;81;25824;-66
2022/06/08 09:01:53;;;;;;;6.20;4.45;;;;;;;29.33;49.01;99829.88;1761885;80;25587;-65
2022/06/08 09:04:33;;;;;;;4.92;4.42;;;;;;;29.09;48.58;99824.66;1766600;81;25630;-65
2022/06/08 09:07:17;;;;;;;5.12;3.90;;;;;;;28.90;48.36;99830.63;1755114;81;28190;-65
2022/06/08 09:09:44;;;;;;;3.83;3.52;;;;;;;28.87;48.31;99830.12;1770478;80;25660;-65
2022/06/08 09:12:19;;;;;;;3.85;3.40;;;;;;;29.21;48.41;99832.85;1758540;81;25732;-66
2022/06/08 09:14:58;;;;;;;3.92;3.62;;;;;;;29.61;48.55;99830.91;1766276;81;25776;-66
2022/06/08 09:17:38;;;;;;;3.70;3.22;;;;;;;29.99;47.58;99827.97;1759662;81;25669;-65
2022/06/08 09:20:26;;;;;;;3.60;3.30;;;;;;;30.12;46.42;99820.94;1760076;80;28237;-65
2022/06/08 09:22:57;;;;;;;3.85;3.50;;;;;;;30.25;45.72;99822.86;1768272;81;25992;-65
2022/06/08 09:25:31;;;;;;;5.70;3.37;;;;;;;30.61;46.41;99826.47;1771768;80;25701;-66
2022/06/08 09:28:00;;;;;;;3.77;3.00;;;;;;;30.95;45.13;99822.59;1746943;81;26285;-65
2022/06/08 09:30:30;;;;;;;3.35;3.05;;;;;;;31.13;44.09;99821.25;1751363;81;25711;-66
2022/06/08 09:33:07;;;;;;;4.03;2.92;;;;;;;31.29;43.41;99818.78;1770331;81;28420;-66
2022/06/08 09:35:41;;;;;;;4.35;2.85;;;;;;;31.39;43.27;99815.39;1747543;80;25914;-66
2022/06/08 09:38:14;;;;;;;3.35;3.05;;;;;;;31.54;43.09;99819.78;1729671;81;25712;-66
2022/06/08 09:41:00;;;;;;;3.17;2.92;;;;;;;31.96;42.81;99817.72;1781251;80;25723;-65
2022/06/08 09:43:39;;;;;;;2.87;2.67;;;;;;;32.18;41.92;99814.14;1747251;81;25708;-66
2022/06/08 09:46:16;;;;;;;3.75;2.92;;;;;;;31.99;41.11;99812.59;1749456;81;27532;-65
2022/06/08 09:52:17;;;;;;;3.00;2.80;;;;;;;31.33;40.69;99816.64;1746304;81;25623;-64
2022/06/08 09:55:12;;;;;;;4.65;4.10;;;;;;;30.93;40.66;99824.42;1752041;81;26114;-65
2022/06/08 09:57:56;;;;;;;5.12;3.30;;;;;;;30.53;40.96;99821.03;1773556;80;25450;-65
2022/06/08 10:00:43;;;;;;;4.72;3.37;;;;;;;30.22;41.10;99817.56;1747191;80;27724;-67
2022/06/08 10:03:31;;;;;;;5.58;3.42;;;;;;;29.99;41.91;99819.61;1754606;81;26256;-65
2022/06/08 10:06:35;;;;;;;4.35;3.47;;;;;;;29.66;42.33;99820.59;1759844;81;25655;-65
2022/06/08 10:09:15;;;;;;;4.85;3.52;;;;;;;29.34;42.69;99822.47;1754431;81;25861;-66
2022/06/08 10:11:52;;;;;;;4.15;3.58;;;;;;;29.00;43.29;99825.34;1768905;80;25669;-67
2022/06/08 10:15:01;;;;;;;4.00;3.70;;;;;;;28.85;43.74;99818.05;1754899;81;28175;-65
2022/06/08 10:17:47;;;;;;;4.05;3.62;;;;;;;28.82;44.12;99818.17;1691661;83;25806;-66
2022/06/08 10:20:34;;;;;;;5.25;3.90;;;;;;;28.73;44.15;99818.07;1671669;85;25724;-65
2022/06/08 10:23:22;;;;;;;3.45;3.22;;;;;;;28.53;44.18;99812.69;1656225;85;26398;-66
2022/06/08 10:25:56;;;;;;;4.50;4.15;;;;;;;28.50;44.89;99810.17;1679589;85;25744;-65
2022/06/08 10:28:37;;;;;;;4.67;3.58;;;;;;;28.60;45.27;99818.05;1626841;86;27559;-65
2022/06/08 10:31:46;;;;;;;8.25;3.92;;;;;;;28.79;45.03;99813.48;1655919;85;25783;-64
2022/06/08 10:34:17;;;;;;;;;;;;;;;29.09;45.48;99809.34;1661513;85;25668;-65
2022/06/08 10:36:52;;;;;;;4.65;3.85;;;;;;;29.62;44.40;99808.77;1671861;85;25578;-65
2022/06/08 10:39:19;;;;;;;8.68;3.98;;;;;;;29.79;44.32;99811.56;1658695;85;25826;-65
2022/06/08 10:44:51;;;;;;;4.67;3.98;;;;;;;30.64;43.66;99809.45;1668950;85;26084;-66
2022/06/08 10:47:37;;;;;;;4.75;4.35;;;;;;;31.15;41.95;99806.20;1658407;85;25435;-66
2022/06/08 10:50:09;;;;;;;5.35;4.12;;;;;;;31.33;41.33;99808.25;1677231;85;25788;-66
2022/06/08 10:52:48;;;;;;;4.75;4.08;;;;;;;31.22;40.96;99807.29;1665370;86;25701;-67
2022/06/08 10:55:20;;;;;;;4.45;3.65;;;;;;;31.02;40.46;99805.55;1647628;87;28070;-65
2022/06/08 10:58:09;;;;;;;26.52;10.58;;;;;;;30.68;40.35;99804.48;1674133;85;25656;-65
2022/06/08 11:00:58;;;;;;;15.65;6.25;;;;;;;30.41;40.40;99805.14;1652155;85;25802;-65
2022/06/08 11:03:36;;;;;;;;;;;;;;;30.09;40.89;99796.75;1670157;85;25621;-66
2022/06/08 11:06:06;;;;;;;;;;;;;;;29.84;40.79;99796.90;1666792;85;25494;-66
2022/06/08 11:08:51;;;;;;;10.53;5.78;;;;;;;29.62;41.22;99795.61;1661208;85;28399;-66
2022/06/08 11:11:42;;;;;;;13.40;6.20;;;;;;;29.48;41.64;99791.17;1656853;85;25911;-66
2022/06/08 11:14:35;;;;;;;6.47;4.90;;;;;;;29.28;41.84;99791.45;1630170;87;25765;-65
2022/06/08 11:17:05;;;;;;;13.22;6.92;;;;;;;29.13;42.39;99788.34;1653462;85;25703;-65
2022/06/08 11:19:34;;;;;;;4.47;4.08;;;;;;;29.12;42.63;99790.36;1649347;85;25764;-65
2022/06/08 11:22:11;;;;;;;5.37;4.50;;;;;;;29.08;42.44;99785.50;1647826;85;27508;-66
2022/06/08 11:24:49;;;;;;;7.95;4.90;;;;;;;29.00;42.06;99782.81;1647271;85;25835;-65
2022/06/08 11:27:34;;;;;;;5.83;4.53;;;;;;;28.85;42.50;99785.27;1654573;85;25739;-65
2022/06/08 11:30:07;;;;;;;5.50;5.00;;;;;;;28.68;42.77;99783.23;1665905;85;26215;-64
2022/06/08 11:32:39;;;;;;;5.25;4.80;;;;;;;28.60;43.09;99785.45;1662197;85;25883;-65
2022/06/08 11:35:33;;;;;;;6.12;4.42;;;;;;;28.49;43.11;99784.36;1661858;85;28230;-66
2022/06/08 11:38:21;;;;;;;5.12;4.62;;;;;;;28.41;43.37;99786.42;1663739;85;25737;-65
2022/06/08 11:40:47;;;;;;;5.57;4.70;;;;;;;28.31;43.56;99779.95;1668911;85;25637;-66
2022/06/08 11:43:22;;;;;;;4.67;4.20;;;;;;;28.23;43.89;99789.73;1662414;85;26268;-65
2022/06/08 11:45:53;;;;;;;4.80;4.40;;;;;;;28.15;43.74;99783.61;1664117;85;25680;-66
2022/06/08 11:48:24;;;;;;;7.30;4.20;;;;;;;28.08;43.82;99785.22;1667663;85;28367;-67
2022/06/08 11:50:58;;;;;;;5.50;4.20;;;;;;;28.00;43.90;99788.03;1663758;86;25790;-65
2022/06/08 11:56:42;;;;;;;4.62;4.22;;;;;;;27.84;44.42;99777.71;1601577;89;25752;-66
2022/06/08 11:59:16;;;;;;;5.42;4.62;;;;;;;27.82;44.25;99780.95;1585068;89;25799;-65
2022/06/08 12:01:56;;;;;;;5.00;4.50;;;;;;;27.73;44.31;99778.80;1600114;89;27614;-65
2022/06/08 12:04:26;;;;;;;5.28;4.78;;;;;;;27.62;44.08;99773.36;1595529;89;25897;-66